createdAt,value
2018-09-07T04:30:28.669Z,30.40
2018-09-07T04:32:56.863Z,32.80
2018-09-07T04:35:25.037Z,30.07
2018-09-07T04:37:53.109Z,31.33
2018-09-07T04:40:21.185Z,31.93
2018-09-07T04:42:49.050Z,35.13
2018-09-07T04:45:17.120Z,34.67
2018-09-07T04:47:45.232Z,29.20
2018-09-07T04:50:13.315Z,29.57
2018-09-07T04:52:46.522Z,30.00
2018-09-07T04:55:14.620Z,35.43
2018-09-07T04:57:42.718Z,29.43
2018-09-07T05:00:11.392Z,33.00
2018-09-07T05:02:39.480Z,28.27
2018-09-07T05:05:07.615Z,30.63
2018-09-07T05:07:35.718Z,30.30
2018-09-07T05:10:03.797Z,35.90
2018-09-07T05:12:31.900Z,30.50
2018-09-07T05:14:59.980Z,26.67
2018-09-07T05:17:28.081Z,25.43
2018-09-07T05:19:56.173Z,28.50
2018-09-07T05:22:24.280Z,28.93
2018-09-07T05:24:52.395Z,23.43
2018-09-07T05:27:20.488Z,22.47
2018-09-07T05:29:48.565Z,29.20
2018-09-07T05:32:16.675Z,25.00
2018-09-07T05:34:44.764Z,26.37
2018-09-07T05:37:13.204Z,23.17
2018-09-07T05:39:41.298Z,20.70
2018-09-07T05:42:09.384Z,19.27
2018-09-07T05:44:37.612Z,21.90
2018-09-07T05:47:05.688Z,24.93
2018-09-07T05:49:33.800Z,19.23
2018-09-07T05:52:01.891Z,29.17
2018-09-07T05:54:29.998Z,22.23
2018-09-07T05:56:58.069Z,22.13
2018-09-07T05:59:26.165Z,22.90
2018-09-07T06:01:54.244Z,23.77
2018-09-07T06:04:22.360Z,21.07
2018-09-07T06:06:50.592Z,23.40
2018-09-07T06:09:18.696Z,24.37
2018-09-07T06:11:46.784Z,22.93
2018-09-07T06:14:14.880Z,24.93
2018-09-07T06:16:42.980Z,22.60
2018-09-07T06:19:11.057Z,29.53
2018-09-07T06:21:39.150Z,28.47
2018-09-07T06:24:07.240Z,28.27
2018-09-07T06:26:35.315Z,28.67
2018-09-07T06:29:03.417Z,31.97
2018-09-07T06:31:31.730Z,31.77
2018-09-07T06:33:59.894Z,30.13
2018-09-07T06:36:28.020Z,31.23
2018-09-07T06:38:56.174Z,29.03
2018-09-07T06:41:24.188Z,27.57
2018-09-07T06:43:51.804Z,34.23
2018-09-07T14:14:57.943Z,5.03
2018-09-07T14:17:26.001Z,4.70
2018-09-07T14:19:54.146Z,4.40
2018-09-07T14:22:22.224Z,4.77
2018-09-07T14:24:50.344Z,7.73
2018-09-07T14:27:18.568Z,7.20
2018-09-07T14:29:46.660Z,7.70
2018-09-07T14:32:14.759Z,6.03
2018-09-07T14:34:42.831Z,5.67
2018-09-07T14:37:10.932Z,5.53
2018-09-07T14:39:39.135Z,5.50
2018-09-07T14:42:07.404Z,6.93
2018-09-07T14:44:35.512Z,6.73
2018-09-07T14:47:03.151Z,3.53
2018-09-07T14:49:31.245Z,3.27
2018-09-07T14:51:59.324Z,4.07
2018-09-07T14:54:27.769Z,5.00
2018-09-07T14:56:55.841Z,3.43
2018-09-07T14:59:23.945Z,4.83
2018-09-07T15:01:52.089Z,3.03
2018-09-07T15:04:20.165Z,3.40
2018-09-07T15:06:48.247Z,4.50
2018-09-07T15:09:16.337Z,4.47
2018-09-07T15:11:44.455Z,5.03
2018-09-07T15:14:12.589Z,2.93
2018-09-07T15:16:40.678Z,3.60
2018-09-07T15:19:08.752Z,3.33
2018-09-07T15:21:37.080Z,2.83
2018-09-07T15:24:05.180Z,4.73
2018-09-07T15:26:33.259Z,2.87
2018-09-07T15:29:01.336Z,6.77
2018-09-07T15:31:29.415Z,8.80
2018-09-07T15:33:57.516Z,4.83
2018-09-07T15:36:25.608Z,7.90
2018-09-07T15:38:53.681Z,2.97
2018-09-07T15:41:21.776Z,3.67
2018-09-07T15:43:49.856Z,2.27
2018-09-07T15:46:17.937Z,2.40
2018-09-07T15:48:46.484Z,7.53
2018-09-07T15:51:14.655Z,2.80
2018-09-07T15:53:42.727Z,2.30
2018-09-07T15:56:10.785Z,2.70
2018-09-07T15:58:38.871Z,2.93
2018-09-07T16:01:07.673Z,3.83
2018-09-07T16:03:35.756Z,3.40
2018-09-07T16:06:03.891Z,2.30
2018-09-07T16:08:31.964Z,3.20
2018-09-07T16:11:00.064Z,2.27
2018-09-07T16:13:28.156Z,2.80
2018-09-07T16:15:56.284Z,4.13
2018-09-07T16:18:24.393Z,2.40
2018-09-07T16:20:52.480Z,2.57
2018-09-07T16:23:20.581Z,5.13
2018-09-07T16:25:48.687Z,2.70
2018-09-07T16:28:16.757Z,5.07
2018-09-07T16:30:44.842Z,2.20
2018-09-07T16:33:12.915Z,3.63
2018-09-07T16:35:40.988Z,4.87
2018-09-07T16:38:09.076Z,3.03
2018-09-07T16:40:37.158Z,4.93
2018-09-07T16:43:05.268Z,2.63
2018-09-07T16:45:33.347Z,3.73
2018-09-07T16:48:01.427Z,3.20
2018-09-07T16:50:29.065Z,2.20
2018-09-07T16:52:57.172Z,8.20
2018-09-07T16:55:25.243Z,3.47
2018-09-07T16:57:53.320Z,5.67
2018-09-07T17:00:21.401Z,6.10
2018-09-07T17:02:49.520Z,5.20
2018-09-07T17:05:17.736Z,3.63
2018-09-07T17:07:45.801Z,2.60
2018-09-07T17:10:13.940Z,2.83
2018-09-07T17:12:42.102Z,2.67
2018-09-07T17:15:10.233Z,3.37
2018-09-07T17:17:38.520Z,7.17
2018-09-07T17:20:06.592Z,5.33
2018-09-07T17:22:34.988Z,8.30
2018-09-07T17:25:03.073Z,5.20
2018-09-07T17:27:31.203Z,4.30
2018-09-07T17:29:59.276Z,5.13
2018-09-07T17:32:27.593Z,3.87
2018-09-07T17:34:55.668Z,4.63
2018-09-07T17:37:23.752Z,3.50
2018-09-07T17:39:51.863Z,10.50
2018-09-07T17:42:19.941Z,6.83
2018-09-07T17:44:48.039Z,4.10
2018-09-07T17:47:16.141Z,13.13
2018-09-07T17:49:43.784Z,3.10
2018-09-07T17:52:11.872Z,2.73
2018-09-07T17:54:39.939Z,3.33
2018-09-07T17:57:08.169Z,2.70
2018-09-07T17:59:36.428Z,2.83
2018-09-07T18:02:04.702Z,3.00
2018-09-07T18:04:32.794Z,3.13
2018-09-07T18:07:00.868Z,5.80
2018-09-07T18:09:28.969Z,3.93
2018-09-07T18:11:57.044Z,3.30
2018-09-07T18:14:25.148Z,6.30
2018-09-07T18:16:53.256Z,4.23
2018-09-07T18:19:21.360Z,3.13
2018-09-07T18:21:50.468Z,8.03
2018-09-07T18:24:18.559Z,3.43
2018-09-07T18:26:46.646Z,8.30
2018-09-07T18:29:14.740Z,2.90
2018-09-07T18:31:42.850Z,5.40
2018-09-07T18:34:11.040Z,2.63
2018-09-07T18:36:39.125Z,4.60
2018-09-07T18:39:07.575Z,2.87
2018-09-07T18:41:35.817Z,7.20
2018-09-07T18:44:03.984Z,3.00
2018-09-07T18:46:32.211Z,3.33
2018-09-07T18:49:00.304Z,3.30
2018-09-07T18:51:28.106Z,3.57
2018-09-07T18:53:56.148Z,8.37
2018-09-07T18:56:24.502Z,5.20
2018-09-07T18:58:59.201Z,4.13
2018-09-07T19:01:27.364Z,5.53
2018-09-07T19:03:55.430Z,3.53
2018-09-07T19:06:23.512Z,7.27
2018-09-07T19:08:51.640Z,7.30
2018-09-07T19:11:19.756Z,3.97
2018-09-07T19:13:47.824Z,4.63
2018-09-07T19:16:15.904Z,3.00
2018-09-07T19:18:43.983Z,6.63
2018-09-07T19:21:12.076Z,4.30
2018-09-07T19:23:40.219Z,3.07
2018-09-07T19:26:08.251Z,5.60
2018-09-07T19:28:36.356Z,4.40
2018-09-07T19:31:04.461Z,4.53
2018-09-07T19:33:32.536Z,4.80
2018-09-07T19:36:00.644Z,5.57
2018-09-07T19:38:28.740Z,3.53
2018-09-07T19:40:56.825Z,5.50
2018-09-07T19:43:24.953Z,4.30
2018-09-07T19:45:53.036Z,7.93
2018-09-07T19:48:21.118Z,6.60
2018-09-07T19:50:48.801Z,4.60
2018-09-07T19:53:16.872Z,2.70
2018-09-07T19:55:44.971Z,7.90
2018-09-07T19:58:13.065Z,4.50
2018-09-07T20:00:41.159Z,8.03
2018-09-07T20:03:09.281Z,5.00
2018-09-07T20:05:37.436Z,9.40
2018-09-07T20:08:05.541Z,5.33
2018-09-07T20:10:33.621Z,2.90
2018-09-07T20:13:01.720Z,3.93
2018-09-07T20:15:29.816Z,4.43
2018-09-07T20:17:57.902Z,4.53
2018-09-07T20:20:25.984Z,12.27
2018-09-07T20:22:54.088Z,4.90
2018-09-07T20:25:22.197Z,4.03
2018-09-07T20:27:50.291Z,3.90
2018-09-07T20:30:18.466Z,2.83
2018-09-07T20:32:46.654Z,3.60
2018-09-07T20:35:14.637Z,4.13
2018-09-07T20:37:43.728Z,3.73
2018-09-07T20:40:11.809Z,3.50
2018-09-07T20:42:39.885Z,6.30
2018-09-07T20:45:09.662Z,4.50
2018-09-07T20:47:37.732Z,3.73
2018-09-07T20:50:05.988Z,4.03
2018-09-07T20:52:34.061Z,2.73
2018-09-07T20:55:02.429Z,4.10
2018-09-07T20:57:30.550Z,6.20
2018-09-07T20:59:58.610Z,8.93
2018-09-07T21:02:26.731Z,4.17
2018-09-07T21:04:54.816Z,8.30
2018-09-07T21:07:22.927Z,3.43
2018-09-07T21:09:51.164Z,5.80
2018-09-07T21:12:19.231Z,6.63
2018-09-07T21:14:47.449Z,7.30
2018-09-07T21:17:15.616Z,3.30
2018-09-07T21:19:43.834Z,3.70
2018-09-07T21:22:11.973Z,5.03
2018-09-07T21:24:40.108Z,4.40
2018-09-07T21:27:08.191Z,3.40
2018-09-07T21:29:36.280Z,9.53
2018-09-07T21:32:04.362Z,4.20
2018-09-07T21:34:32.611Z,3.30
2018-09-07T21:37:00.704Z,3.40
2018-09-07T21:39:29.745Z,4.27
2018-09-07T21:41:57.840Z,5.10
2018-09-07T21:44:25.943Z,5.00
2018-09-07T21:46:54.945Z,4.77
2018-09-07T21:49:23.020Z,4.57
2018-09-07T21:51:51.108Z,6.50
2018-09-07T21:54:19.181Z,5.83
2018-09-07T21:56:47.248Z,5.50
2018-09-07T21:59:15.408Z,5.70
2018-09-07T22:01:43.495Z,7.83
2018-09-07T22:04:11.588Z,3.90
2018-09-07T22:06:45.212Z,4.60
2018-09-07T22:09:13.284Z,6.13
2018-09-07T22:11:41.365Z,5.30
2018-09-07T22:14:09.679Z,3.40
2018-09-07T22:16:37.723Z,5.63
2018-09-07T22:19:05.809Z,3.83
2018-09-07T22:21:33.894Z,4.00
2018-09-07T22:24:01.965Z,6.93
2018-09-07T22:26:30.050Z,4.00
2018-09-07T22:28:58.133Z,4.90
2018-09-07T22:31:26.264Z,12.03
2018-09-07T22:33:54.284Z,9.20
2018-09-07T22:36:22.370Z,5.07
2018-09-07T22:38:50.460Z,5.20
2018-09-07T22:41:18.596Z,4.40
2018-09-07T22:43:46.668Z,5.13
2018-09-07T22:46:14.752Z,8.40
2018-09-07T22:48:44.143Z,6.33
2018-09-07T22:51:12.209Z,5.83
2018-09-07T22:53:40.291Z,3.70
2018-09-07T22:56:08.358Z,4.60
2018-09-07T22:58:36.513Z,3.87
2018-09-07T23:01:04.581Z,3.93
2018-09-07T23:03:32.668Z,5.80
2018-09-07T23:06:00.812Z,5.50
2018-09-07T23:08:28.902Z,5.97
2018-09-07T23:10:57.324Z,6.40
2018-09-07T23:13:26.069Z,3.20
2018-09-07T23:15:54.276Z,4.00
2018-09-07T23:18:22.376Z,9.97
2018-09-07T23:20:50.490Z,8.30
2018-09-07T23:23:18.564Z,7.00
2018-09-07T23:25:46.627Z,7.70
2018-09-07T23:28:14.708Z,10.53
